createdAt,value
2023-05-01T00:00:09.140Z,5.57
2023-05-01T00:01:09.200Z,5.56
2023-05-01T00:02:09.104Z,5.60
2023-05-01T00:03:09.241Z,5.70
2023-05-01T00:04:09.249Z,5.82
2023-05-01T00:05:09.210Z,5.93
2023-05-01T00:06:09.129Z,6.04
2023-05-01T00:07:09.070Z,6.07
2023-05-01T00:08:09.098Z,5.98
2023-05-01T00:09:09.034Z,5.91
2023-05-01T00:10:09.078Z,5.98
2023-05-01T00:11:09.016Z,6.07
2023-05-01T00:12:08.985Z,6.13
2023-05-01T00:13:08.977Z,6.19
2023-05-01T00:14:09.004Z,6.26
2023-05-01T00:15:08.992Z,6.29
2023-05-01T00:16:09.038Z,6.32
2023-05-01T00:17:08.936Z,6.33
2023-05-01T00:18:08.964Z,6.36
2023-05-01T00:19:08.914Z,6.26
2023-05-01T00:20:08.937Z,6.06
2023-05-01T00:21:15.827Z,5.93
2023-05-01T00:22:08.885Z,5.78
2023-05-01T00:23:08.849Z,5.63
2023-05-01T00:24:08.851Z,5.63
2023-05-01T00:25:08.878Z,5.70
2023-05-01T00:26:08.862Z,5.75
2023-05-01T00:27:08.811Z,5.86
2023-05-01T00:28:08.781Z,5.95
2023-05-01T00:29:08.772Z,6.03
2023-05-01T00:30:08.776Z,6.06
2023-05-01T00:31:08.759Z,6.06
2023-05-01T00:32:08.828Z,6.09
2023-05-01T00:33:08.794Z,6.07
2023-05-01T00:34:08.719Z,6.13
2023-05-01T00:35:08.767Z,6.13
2023-05-01T00:36:08.680Z,6.14
2023-05-01T00:37:08.704Z,6.19
2023-05-01T00:38:08.663Z,6.21
2023-05-01T00:39:08.660Z,6.22
2023-05-01T00:40:08.659Z,6.22
2023-05-01T00:41:08.618Z,6.18
2023-05-01T00:42:08.600Z,6.19
2023-05-01T00:43:08.627Z,6.14
2023-05-01T00:44:08.588Z,6.14
2023-05-01T00:45:08.577Z,6.14
2023-05-01T00:46:08.622Z,6.16
2023-05-01T00:47:08.570Z,6.14
2023-05-01T00:48:08.600Z,6.11
2023-05-01T00:49:08.577Z,6.13
2023-05-01T00:50:08.529Z,6.10
2023-05-01T00:51:08.514Z,6.10
2023-05-01T00:52:08.487Z,6.07
2023-05-01T00:53:08.490Z,6.03
2023-05-01T00:54:08.460Z,6.00
2023-05-01T00:55:08.470Z,5.98
2023-05-01T00:56:08.476Z,5.96
2023-05-01T00:57:08.433Z,5.98
2023-05-01T00:58:08.391Z,6.00
2023-05-01T00:59:08.407Z,6.00
2023-05-01T01:00:08.379Z,6.01
2023-05-01T01:01:08.435Z,6.04
2023-05-01T01:02:08.411Z,6.03
2023-05-01T01:03:08.410Z,6.00
2023-05-01T01:04:08.343Z,5.96
2023-05-01T01:05:08.345Z,5.93
2023-05-01T01:06:08.381Z,5.92
2023-05-01T01:07:08.324Z,5.93
2023-05-01T01:08:08.303Z,5.93
2023-05-01T01:09:08.256Z,5.96
2023-05-01T01:10:08.257Z,6.00
2023-05-01T01:11:08.261Z,6.04
2023-05-01T01:12:08.229Z,6.09
2023-05-01T01:13:08.239Z,6.11
2023-05-01T01:14:08.224Z,6.13
2023-05-01T01:15:08.192Z,6.13
2023-05-01T01:16:08.200Z,6.11
2023-05-01T01:17:08.299Z,6.11
2023-05-01T01:18:08.203Z,6.09
2023-05-01T01:19:08.177Z,6.09
2023-05-01T01:20:08.141Z,6.10
2023-05-01T01:21:08.138Z,6.13
2023-05-01T01:22:08.109Z,6.10
2023-05-01T01:23:08.120Z,6.07
2023-05-01T01:24:08.073Z,6.09
2023-05-01T01:25:08.058Z,6.10
2023-05-01T01:26:08.081Z,6.09
2023-05-01T01:27:08.074Z,6.13
2023-05-01T01:28:08.044Z,6.14
2023-05-01T01:29:07.998Z,6.13
2023-05-01T01:30:08.025Z,6.16
2023-05-01T01:31:08.057Z,6.16
2023-05-01T01:32:07.970Z,6.16
2023-05-01T01:33:07.999Z,6.11
2023-05-01T01:34:07.946Z,6.03
2023-05-01T01:35:07.924Z,6.00
2023-05-01T01:36:07.928Z,5.98
2023-05-01T01:37:07.899Z,5.96
2023-05-01T01:38:07.958Z,5.92
2023-05-01T01:39:07.889Z,5.91
2023-05-01T01:40:07.872Z,5.89
2023-05-01T01:41:07.870Z,5.89
2023-05-01T01:42:07.859Z,5.92
2023-05-01T01:43:07.846Z,5.93
2023-05-01T01:44:07.813Z,5.98
2023-05-01T01:45:07.800Z,6.03
2023-05-01T01:46:07.886Z,6.07
2023-05-01T01:47:07.807Z,6.10
2023-05-01T01:48:07.850Z,6.13
2023-05-01T01:49:07.777Z,6.18
2023-05-01T01:50:07.750Z,6.22
2023-05-01T01:51:07.784Z,6.22
2023-05-01T01:52:07.736Z,6.21
2023-05-01T01:53:07.711Z,6.14
2023-05-01T01:54:07.697Z,6.14
2023-05-01T01:55:07.699Z,6.13
2023-05-01T01:56:07.701Z,6.10
2023-05-01T01:57:07.698Z,6.09
2023-05-01T01:58:07.637Z,6.07
2023-05-01T01:59:07.640Z,6.09
2023-05-01T02:00:07.636Z,6.06
2023-05-01T02:01:07.624Z,6.04
2023-05-01T02:02:07.645Z,5.96
2023-05-01T02:03:07.755Z,5.91
2023-05-01T02:04:07.639Z,5.88
2023-05-01T02:05:07.567Z,5.85
2023-05-01T02:06:07.716Z,5.83
2023-05-01T02:07:07.555Z,5.82
2023-05-01T02:08:07.520Z,5.82
2023-05-01T02:09:07.548Z,5.81
2023-05-01T02:10:07.525Z,5.78
2023-05-01T02:11:07.513Z,5.75
2023-05-01T02:12:07.477Z,5.74
2023-05-01T02:13:07.471Z,5.71
2023-05-01T02:14:07.451Z,5.71
2023-05-01T02:15:07.442Z,5.66
2023-05-01T02:16:07.452Z,5.68
2023-05-01T02:17:07.421Z,5.67
2023-05-01T02:18:07.466Z,5.67
2023-05-01T02:19:07.384Z,5.67
2023-05-01T02:20:07.392Z,5.60
2023-05-01T02:21:07.365Z,5.57
2023-05-01T02:22:07.339Z,5.53
2023-05-01T02:23:07.369Z,5.49
2023-05-01T02:24:07.318Z,5.49
2023-05-01T02:25:07.304Z,5.43
2023-05-01T02:26:07.329Z,5.40
2023-05-01T02:27:07.294Z,5.37
2023-05-01T02:28:07.283Z,5.34
2023-05-01T02:29:07.283Z,5.32
2023-05-01T02:30:07.282Z,5.31
2023-05-01T02:31:07.323Z,5.28
2023-05-01T02:32:07.322Z,5.23
2023-05-01T02:33:07.270Z,5.17
2023-05-01T02:34:07.190Z,5.14
2023-05-01T02:35:07.172Z,5.14
2023-05-01T02:36:07.189Z,5.09
2023-05-01T02:37:07.189Z,5.09
2023-05-01T02:38:07.157Z,5.12
2023-05-01T02:39:07.158Z,5.12
2023-05-01T02:40:07.146Z,5.13
2023-05-01T02:41:07.139Z,5.12
2023-05-01T02:42:07.124Z,5.14
2023-05-01T02:43:07.080Z,5.17
2023-05-01T02:44:07.089Z,5.20
2023-05-01T02:45:07.063Z,5.22
2023-05-01T02:46:07.097Z,5.25
2023-05-01T02:47:07.083Z,5.31
2023-05-01T02:48:07.084Z,5.32
2023-05-01T02:49:07.021Z,5.32
2023-05-01T02:50:07.077Z,5.34
2023-05-01T02:51:07.094Z,5.32
2023-05-01T02:52:06.994Z,5.31
2023-05-01T02:53:06.966Z,5.35
2023-05-01T02:54:06.946Z,5.35
2023-05-01T02:55:06.987Z,5.34
2023-05-01T02:56:06.927Z,5.30
2023-05-01T02:57:06.953Z,5.28
2023-05-01T02:58:06.916Z,5.23
2023-05-01T02:59:06.930Z,5.23
2023-05-01T03:00:06.885Z,5.23
2023-05-01T03:01:06.889Z,5.20
2023-05-01T03:02:06.868Z,5.19
2023-05-01T03:03:14.528Z,5.17
2023-05-01T03:04:06.859Z,5.17
2023-05-01T03:05:06.791Z,5.12
2023-05-01T03:06:06.811Z,5.10
2023-05-01T03:07:06.775Z,5.10
2023-05-01T03:08:06.774Z,5.12
2023-05-01T03:09:06.725Z,5.12
2023-05-01T03:10:06.745Z,5.12
2023-05-01T03:11:06.729Z,5.09
2023-05-01T03:12:06.725Z,5.10
2023-05-01T03:13:06.696Z,5.09
2023-05-01T03:14:06.669Z,5.09
2023-05-01T03:15:06.667Z,5.10
2023-05-01T03:16:06.690Z,5.12
2023-05-01T03:17:06.642Z,5.10
2023-05-01T03:18:06.698Z,5.10
2023-05-01T03:19:13.645Z,5.09
2023-05-01T03:20:06.620Z,5.09
2023-05-01T03:21:06.595Z,5.05
2023-05-01T03:22:06.578Z,5.01
2023-05-01T03:23:06.565Z,4.99
2023-05-01T03:24:06.560Z,4.99
2023-05-01T03:25:06.562Z,4.99
2023-05-01T03:26:06.543Z,4.96
2023-05-01T03:27:06.532Z,4.96
2023-05-01T03:28:06.574Z,4.96
2023-05-01T03:29:06.505Z,4.95
2023-05-01T03:30:06.495Z,4.95
2023-05-01T03:31:06.482Z,4.95
2023-05-01T03:32:06.509Z,4.96
2023-05-01T03:33:06.471Z,4.96
2023-05-01T03:34:06.444Z,4.94
2023-05-01T03:35:06.445Z,4.92
2023-05-01T03:36:06.393Z,4.92
2023-05-01T03:37:06.391Z,4.92
2023-05-01T03:38:06.383Z,4.94
2023-05-01T03:39:06.365Z,4.95
2023-05-01T03:40:06.356Z,4.92
2023-05-01T03:41:06.362Z,4.95
2023-05-01T03:42:06.346Z,5.01
2023-05-01T03:43:06.339Z,5.04
2023-05-01T03:44:06.355Z,5.07
2023-05-01T03:45:06.322Z,5.07
2023-05-01T03:46:06.349Z,5.09
2023-05-01T03:47:06.238Z,5.09
2023-05-01T03:48:06.319Z,5.13
2023-05-01T03:49:06.237Z,5.14
2023-05-01T03:50:06.256Z,5.16
2023-05-01T03:51:06.216Z,5.16
2023-05-01T03:52:06.251Z,5.14
2023-05-01T03:53:06.187Z,5.09
2023-05-01T03:54:06.166Z,5.05
2023-05-01T03:55:06.155Z,5.02
2023-05-01T03:56:06.142Z,4.99
2023-05-01T03:57:06.126Z,4.98
2023-05-01T03:58:06.150Z,5.01
2023-05-01T03:59:06.101Z,5.02
2023-05-01T04:00:06.122Z,5.02
2023-05-01T04:01:06.076Z,5.04
2023-05-01T04:02:06.058Z,5.05
2023-05-01T04:03:06.282Z,5.09
2023-05-01T04:04:06.154Z,5.10
2023-05-01T04:05:06.052Z,5.07
2023-05-01T04:06:06.031Z,5.07
2023-05-01T04:07:06.006Z,5.10
2023-05-01T04:08:05.983Z,5.10
2023-05-01T04:09:05.982Z,5.17
2023-05-01T04:10:05.983Z,5.19
2023-05-01T04:11:05.939Z,5.13
2023-05-01T04:12:05.962Z,5.16
2023-05-01T04:13:05.917Z,5.16
2023-05-01T04:14:05.910Z,5.19
2023-05-01T04:15:05.877Z,5.19
2023-05-01T04:16:05.971Z,5.16
2023-05-01T04:17:05.846Z,5.19
2023-05-01T04:18:05.928Z,5.20
2023-05-01T04:19:05.860Z,5.20
2023-05-01T04:20:05.841Z,5.23
2023-05-01T04:21:05.874Z,5.30
2023-05-01T04:22:05.825Z,5.30
2023-05-01T04:23:05.793Z,5.32
2023-05-01T04:24:05.772Z,5.37
2023-05-01T04:25:05.768Z,5.43
2023-05-01T04:26:05.753Z,5.46
2023-05-01T04:27:05.781Z,5.52
2023-05-01T04:28:05.723Z,5.53
2023-05-01T04:29:05.728Z,5.56
2023-05-01T04:30:05.712Z,5.64
2023-05-01T04:31:05.732Z,5.67
2023-05-01T04:32:05.792Z,5.71
2023-05-01T04:33:05.719Z,5.77
2023-05-01T04:34:05.649Z,5.83
2023-05-01T04:35:05.653Z,5.86
2023-05-01T04:36:05.622Z,5.91
2023-05-01T04:37:05.619Z,5.91
2023-05-01T04:38:05.613Z,5.93
2023-05-01T04:39:05.589Z,5.95
2023-05-01T04:40:05.603Z,6.00
2023-05-01T04:41:05.542Z,6.06
2023-05-01T04:42:05.545Z,6.10
2023-05-01T04:43:05.538Z,6.14
2023-05-01T04:44:05.525Z,6.18
2023-05-01T04:45:05.548Z,6.22
2023-05-01T04:46:05.538Z,6.26
2023-05-01T04:47:05.572Z,6.25
2023-05-01T04:48:05.511Z,6.26
2023-05-01T04:49:05.449Z,6.30
2023-05-01T04:50:05.440Z,6.38
2023-05-01T04:51:05.622Z,6.43
2023-05-01T04:52:05.438Z,6.46
2023-05-01T04:53:05.452Z,6.51
2023-05-01T04:54:05.401Z,6.53
2023-05-01T04:55:05.394Z,6.56
2023-05-01T04:56:05.369Z,6.54
2023-05-01T04:57:05.365Z,6.58
2023-05-01T04:58:05.398Z,6.62
2023-05-01T04:59:05.339Z,6.63
2023-05-01T05:00:05.320Z,6.66
2023-05-01T05:01:05.329Z,6.72
2023-05-01T05:02:05.457Z,6.73
2023-05-01T05:03:05.391Z,6.73
2023-05-01T05:04:05.428Z,6.76
2023-05-01T05:05:05.264Z,6.76
2023-05-01T05:06:05.295Z,6.79
2023-05-01T05:07:05.223Z,6.81
2023-05-01T05:08:05.234Z,6.87
2023-05-01T05:09:05.257Z,6.97
2023-05-01T05:10:05.197Z,6.99
2023-05-01T05:11:05.151Z,7.02
2023-05-01T05:12:05.172Z,7.02
2023-05-01T05:13:05.144Z,7.04
2023-05-01T05:14:05.135Z,7.05
2023-05-01T05:15:05.172Z,7.05
2023-05-01T05:16:05.245Z,7.07
2023-05-01T05:17:05.191Z,7.09
2023-05-01T05:18:05.146Z,7.15
2023-05-01T05:19:05.062Z,7.16
2023-05-01T05:20:05.124Z,7.17
2023-05-01T05:21:05.067Z,7.23
2023-05-01T05:22:05.018Z,7.31
2023-05-01T05:23:05.002Z,7.34
2023-05-01T05:24:05.022Z,7.38
2023-05-01T05:25:04.988Z,7.41
2023-05-01T05:26:04.999Z,7.44
2023-05-01T05:27:04.962Z,7.47
2023-05-01T05:28:04.970Z,7.53
2023-05-01T05:29:05.008Z,7.56
2023-05-01T05:30:04.921Z,7.58
2023-05-01T05:31:04.915Z,7.60
2023-05-01T05:32:05.014Z,7.66
2023-05-01T05:33:04.931Z,7.67
2023-05-01T05:34:04.880Z,7.71
2023-05-01T05:35:04.875Z,7.75
2023-05-01T05:36:04.863Z,7.79
2023-05-01T05:37:04.838Z,7.81
2023-05-01T05:38:04.855Z,7.84
2023-05-01T05:39:04.816Z,7.87
2023-05-01T05:40:04.833Z,7.89
2023-05-01T05:41:04.790Z,7.92
2023-05-01T05:42:04.824Z,7.92
2023-05-01T05:43:04.757Z,7.96
2023-05-01T05:44:04.757Z,7.97
2023-05-01T05:45:04.749Z,8.03
2023-05-01T05:46:04.810Z,8.04
2023-05-01T05:47:04.746Z,8.10
2023-05-01T05:48:04.763Z,8.12
2023-05-01T05:49:04.679Z,8.18
2023-05-01T05:50:04.692Z,8.21
2023-05-01T05:51:04.677Z,8.26
2023-05-01T05:52:04.648Z,8.32
2023-05-01T05:53:04.687Z,8.37
2023-05-01T05:54:04.619Z,8.39
2023-05-01T05:55:04.590Z,8.42
2023-05-01T05:56:04.614Z,8.47
2023-05-01T05:57:04.606Z,8.53
2023-05-01T05:58:04.606Z,8.54
2023-05-01T05:59:04.686Z,8.60
2023-05-01T06:00:04.534Z,8.62
2023-05-01T06:01:04.598Z,8.66
2023-05-01T06:02:04.583Z,8.71
2023-05-01T06:03:04.649Z,8.75
2023-05-01T06:04:04.486Z,8.79
2023-05-01T06:05:04.559Z,8.86
2023-05-01T06:06:04.627Z,8.88
2023-05-01T06:07:04.561Z,8.94
2023-05-01T06:08:04.426Z,8.99
2023-05-01T06:09:04.429Z,9.04
2023-05-01T06:10:04.418Z,9.04
2023-05-01T06:11:04.452Z,9.12
2023-05-01T06:12:04.438Z,9.20
2023-05-01T06:13:08.620Z,9.24
2023-05-01T06:14:05.368Z,9.30
2023-05-01T06:15:04.380Z,9.35
2023-05-01T06:16:05.178Z,9.42
2023-05-01T06:17:04.416Z,9.48
2023-05-01T06:18:04.358Z,9.52
2023-05-01T06:19:04.319Z,9.57
2023-05-01T06:20:04.368Z,9.61
2023-05-01T06:21:04.255Z,9.64
2023-05-01T06:22:04.285Z,9.67
2023-05-01T06:23:04.279Z,9.71
2023-05-01T06:24:04.280Z,9.73
2023-05-01T06:25:04.232Z,9.79
2023-05-01T06:26:04.231Z,9.85
2023-05-01T06:27:04.202Z,9.88
2023-05-01T06:28:04.206Z,9.96
2023-05-01T06:29:04.188Z,10.00
2023-05-01T06:30:04.187Z,10.04
2023-05-01T06:31:04.192Z,10.12
2023-05-01T06:32:04.145Z,10.15
2023-05-01T06:33:04.150Z,10.21
2023-05-01T06:34:04.115Z,10.25
2023-05-01T06:35:04.188Z,10.30
2023-05-01T06:36:04.095Z,10.37
2023-05-01T06:37:04.094Z,10.42
2023-05-01T06:38:04.080Z,10.47
2023-05-01T06:39:04.106Z,10.52
2023-05-01T06:40:04.044Z,10.56
2023-05-01T06:41:04.025Z,10.62
2023-05-01T06:42:04.037Z,10.68
2023-05-01T06:43:04.054Z,10.73
2023-05-01T06:44:03.995Z,10.76
2023-05-01T06:45:03.969Z,10.80
2023-05-01T06:46:03.956Z,10.86
2023-05-01T06:47:04.033Z,10.92
2023-05-01T06:48:03.962Z,10.99
2023-05-01T06:49:03.949Z,11.06
2023-05-01T06:50:05.554Z,11.11
2023-05-01T06:51:03.886Z,11.16
2023-05-01T06:52:03.884Z,11.25
2023-05-01T06:53:03.858Z,11.31
2023-05-01T06:54:03.863Z,11.34
2023-05-01T06:55:03.826Z,11.38
2023-05-01T06:56:03.820Z,11.46
2023-05-01T06:57:03.822Z,11.53
2023-05-01T06:58:12.683Z,11.64
2023-05-01T06:59:04.794Z,11.70
2023-05-01T07:00:03.766Z,11.72
2023-05-01T07:01:03.781Z,11.77
2023-05-01T07:02:03.824Z,11.82
2023-05-01T07:03:03.763Z,11.87
2023-05-01T07:04:03.720Z,11.90
2023-05-01T07:05:03.703Z,12.01
2023-05-01T07:06:03.739Z,12.08
2023-05-01T07:07:03.669Z,12.16
2023-05-01T07:08:03.689Z,12.24
2023-05-01T07:09:03.659Z,12.31
2023-05-01T07:10:03.627Z,12.31
2023-05-01T07:11:03.641Z,12.37
2023-05-01T07:12:03.644Z,12.39
2023-05-01T07:13:03.598Z,12.44
2023-05-01T07:14:03.610Z,12.51
2023-05-01T07:15:03.599Z,12.59
2023-05-01T07:16:03.579Z,12.63
2023-05-01T07:17:03.584Z,12.66
2023-05-01T07:18:03.619Z,12.69
2023-05-01T07:19:03.581Z,12.71
2023-05-01T07:20:03.553Z,12.75
2023-05-01T07:21:03.505Z,12.78
2023-05-01T07:22:03.477Z,12.79
2023-05-01T07:23:04.658Z,12.88
2023-05-01T07:24:03.483Z,12.95
2023-05-01T07:25:03.462Z,13.00
2023-05-01T07:26:03.442Z,13.07
2023-05-01T07:27:03.433Z,13.11
2023-05-01T07:28:03.413Z,13.18
2023-05-01T07:29:03.406Z,13.24
2023-05-01T07:30:03.386Z,13.24
2023-05-01T07:31:03.380Z,13.29
2023-05-01T07:32:03.406Z,13.33
2023-05-01T07:33:03.387Z,13.38
2023-05-01T07:34:03.339Z,13.46
2023-05-01T07:35:03.305Z,13.52
2023-05-01T07:36:03.311Z,13.56
2023-05-01T07:37:03.313Z,13.63
2023-05-01T07:38:03.305Z,13.65
2023-05-01T07:39:03.278Z,13.70
2023-05-01T07:40:03.260Z,13.71
2023-05-01T07:41:03.269Z,13.80
2023-05-01T07:42:03.282Z,13.87
2023-05-01T07:43:03.220Z,13.92
2023-05-01T07:44:03.212Z,14.06
2023-05-01T07:45:03.204Z,14.10
2023-05-01T07:46:03.221Z,14.13
2023-05-01T07:47:03.173Z,14.14
2023-05-01T07:48:03.230Z,14.19
2023-05-01T07:49:03.150Z,14.20
2023-05-01T07:50:03.124Z,14.25
2023-05-01T07:51:03.108Z,14.28
2023-05-01T07:52:03.086Z,14.35
2023-05-01T07:53:03.100Z,14.43
2023-05-01T07:54:03.073Z,14.53
2023-05-01T07:55:03.067Z,14.64
2023-05-01T07:56:03.063Z,14.65
2023-05-01T07:57:03.043Z,14.69
2023-05-01T07:58:03.018Z,14.74
2023-05-01T07:59:03.013Z,14.80
2023-05-01T08:00:03.007Z,14.83
2023-05-01T08:01:03.008Z,14.84
2023-05-01T08:02:02.994Z,14.87
2023-05-01T08:03:03.136Z,14.88
2023-05-01T08:04:03.022Z,14.84
2023-05-01T08:05:03.035Z,14.81
2023-05-01T08:06:03.090Z,14.81
2023-05-01T08:07:02.921Z,14.78
2023-05-01T08:08:02.880Z,14.81
2023-05-01T08:09:02.864Z,14.84
2023-05-01T08:10:03.159Z,14.91
2023-05-01T08:11:02.864Z,14.94
2023-05-01T08:12:02.823Z,15.02
2023-05-01T08:13:02.831Z,15.08
2023-05-01T08:14:02.812Z,15.13
2023-05-01T08:15:02.843Z,15.21
2023-05-01T08:16:02.874Z,15.26
2023-05-01T08:17:02.762Z,15.27
2023-05-01T08:18:02.820Z,15.30
2023-05-01T08:19:02.775Z,15.31
2023-05-01T08:20:02.744Z,15.33
2023-05-01T08:21:02.713Z,15.33
2023-05-01T08:22:02.710Z,15.36
2023-05-01T08:23:02.699Z,15.39
2023-05-01T08:24:02.698Z,15.35
2023-05-01T08:25:02.674Z,15.38
2023-05-01T08:26:02.679Z,15.46
2023-05-01T08:27:02.653Z,15.52
2023-05-01T08:28:02.634Z,15.59
2023-05-01T08:29:02.668Z,15.68
2023-05-01T08:30:02.603Z,15.79
2023-05-01T08:31:02.631Z,15.86
2023-05-01T08:32:02.626Z,15.94
2023-05-01T08:33:02.636Z,16.00
2023-05-01T08:34:02.568Z,16.04
2023-05-01T08:35:02.556Z,15.88
2023-05-01T08:36:02.551Z,15.92
2023-05-01T08:37:02.511Z,15.93
2023-05-01T08:38:02.516Z,16.01
2023-05-01T08:39:02.495Z,16.07
2023-05-01T08:40:02.478Z,16.14
2023-05-01T08:41:02.474Z,16.23
2023-05-01T08:42:02.453Z,16.33
2023-05-01T08:43:02.470Z,16.33
2023-05-01T08:44:02.425Z,16.27
2023-05-01T08:45:02.422Z,16.33
2023-05-01T08:46:02.418Z,16.37
2023-05-01T08:47:02.425Z,16.42
2023-05-01T08:48:02.416Z,16.14
2023-05-01T08:49:02.344Z,16.12
2023-05-01T08:50:02.347Z,16.22
2023-05-01T08:51:02.333Z,16.27
2023-05-01T08:52:02.327Z,16.37
2023-05-01T08:53:02.319Z,16.41
2023-05-01T08:54:02.288Z,16.45
2023-05-01T08:55:02.267Z,16.40
2023-05-01T08:56:02.273Z,16.41
2023-05-01T08:57:02.261Z,16.33
2023-05-01T08:58:02.242Z,16.30
2023-05-01T08:59:02.222Z,16.27
2023-05-01T09:00:02.249Z,16.27
2023-05-01T09:01:02.197Z,16.30
2023-05-01T09:02:02.303Z,16.33
2023-05-01T09:03:02.308Z,16.37
2023-05-01T09:04:02.352Z,16.30
2023-05-01T09:05:02.246Z,16.30
2023-05-01T09:06:02.973Z,16.35
2023-05-01T09:07:02.168Z,16.41
2023-05-01T09:08:02.249Z,16.41
2023-05-01T09:09:02.096Z,16.35
2023-05-01T09:10:02.137Z,16.41
2023-05-01T09:11:02.058Z,16.40
2023-05-01T09:12:02.055Z,16.41
2023-05-01T09:13:02.072Z,16.40
2023-05-01T09:14:02.020Z,16.40
2023-05-01T09:15:02.079Z,16.53
2023-05-01T09:16:02.027Z,16.60
2023-05-01T09:17:02.004Z,16.73
2023-05-01T09:18:03.784Z,16.83
2023-05-01T09:20:12.660Z,16.96
2023-05-01T09:21:12.093Z,17.00
2023-05-01T09:22:12.078Z,17.07
2023-05-01T09:23:12.065Z,17.07
2023-05-01T09:24:12.044Z,17.08
2023-05-01T09:25:12.031Z,17.15
2023-05-01T09:26:12.020Z,17.20
2023-05-01T09:27:12.032Z,17.23
2023-05-01T09:28:12.004Z,17.28
2023-05-01T09:29:12.399Z,17.35
2023-05-01T09:30:12.000Z,17.41
2023-05-01T09:31:11.993Z,17.43
2023-05-01T09:32:12.047Z,17.46
2023-05-01T09:33:12.176Z,17.50
2023-05-01T09:34:11.957Z,17.62
2023-05-01T09:35:11.931Z,17.63
2023-05-01T09:36:11.907Z,17.64
2023-05-01T09:37:11.904Z,17.67
2023-05-01T09:38:11.891Z,17.70
2023-05-01T09:39:11.854Z,17.63
2023-05-01T09:40:11.850Z,17.66
2023-05-01T09:41:11.864Z,17.70
2023-05-01T09:42:11.812Z,17.62
2023-05-01T09:43:11.950Z,17.63
2023-05-01T09:44:11.782Z,17.64
2023-05-01T09:45:11.771Z,17.74
2023-05-01T09:46:11.984Z,17.78
2023-05-01T09:47:11.803Z,17.82
2023-05-01T09:48:11.969Z,17.84
2023-05-01T09:49:11.722Z,17.85
2023-05-01T09:50:11.720Z,17.89
2023-05-01T09:51:11.709Z,17.99
2023-05-01T09:52:11.729Z,18.07
2023-05-01T09:53:11.667Z,18.13
2023-05-01T09:54:11.667Z,18.15
2023-05-01T09:55:11.651Z,18.21
2023-05-01T09:56:11.631Z,18.27
2023-05-01T09:57:11.697Z,18.27
2023-05-01T09:58:11.627Z,18.28
2023-05-01T09:59:11.593Z,18.34
2023-05-01T10:00:11.568Z,18.31
2023-05-01T10:01:11.619Z,18.22
2023-05-01T10:02:11.765Z,18.19
2023-05-01T10:03:11.686Z,18.18
2023-05-01T10:04:11.595Z,18.18
2023-05-01T10:05:11.517Z,18.27
2023-05-01T10:06:11.579Z,18.19
2023-05-01T10:07:11.498Z,18.17
2023-05-01T10:08:11.531Z,18.15
2023-05-01T10:09:11.465Z,18.17
2023-05-01T10:10:11.451Z,18.15
2023-05-01T10:11:11.442Z,18.17
2023-05-01T10:12:11.444Z,18.09
2023-05-01T10:13:11.394Z,18.13
2023-05-01T10:14:11.439Z,18.10
2023-05-01T10:15:24.069Z,18.12
2023-05-01T10:16:12.382Z,18.13
2023-05-01T10:17:11.450Z,18.22
2023-05-01T10:18:11.400Z,18.27
2023-05-01T10:19:11.363Z,18.27
2023-05-01T10:20:11.352Z,18.25
2023-05-01T10:21:11.303Z,18.31
2023-05-01T10:22:11.301Z,18.39
2023-05-01T10:23:11.282Z,18.44
2023-05-01T10:24:11.345Z,18.46
2023-05-01T10:25:11.254Z,18.52
2023-05-01T10:26:11.225Z,18.43
2023-05-01T10:27:11.250Z,18.37
2023-05-01T10:28:11.202Z,18.42
2023-05-01T10:29:11.213Z,18.47
2023-05-01T10:30:11.332Z,18.52
2023-05-01T10:31:11.222Z,18.61
2023-05-01T10:32:11.161Z,18.67
2023-05-01T10:33:11.152Z,18.74
2023-05-01T10:34:11.133Z,18.82
2023-05-01T10:35:11.125Z,18.83
2023-05-01T10:36:11.112Z,18.87
2023-05-01T10:37:12.058Z,18.86
2023-05-01T10:38:11.112Z,18.87
2023-05-01T10:39:11.063Z,18.91
2023-05-01T10:40:11.058Z,18.94
2023-05-01T10:41:11.091Z,18.97
2023-05-01T10:42:11.331Z,18.58
2023-05-01T10:43:11.000Z,18.31
2023-05-01T10:44:10.995Z,18.27
2023-05-01T10:45:10.985Z,18.34
2023-05-01T10:46:10.967Z,18.47
2023-05-01T10:47:10.961Z,18.50
2023-05-01T10:48:11.006Z,18.62
2023-05-01T10:49:10.934Z,18.74
2023-05-01T10:50:10.944Z,18.77
2023-05-01T10:51:10.906Z,18.82
2023-05-01T10:52:10.906Z,18.83
2023-05-01T10:53:10.880Z,18.82
2023-05-01T10:54:10.857Z,18.80
2023-05-01T10:55:10.854Z,18.87
2023-05-01T10:56:10.839Z,18.90
2023-05-01T10:57:10.828Z,18.76
2023-05-01T10:58:10.827Z,18.68
2023-05-01T10:59:10.910Z,18.67
2023-05-01T11:00:10.815Z,18.62
2023-05-01T11:01:10.777Z,18.65
2023-05-01T11:02:10.804Z,18.79
2023-05-01T11:03:10.768Z,18.92
2023-05-01T11:04:10.740Z,18.91
2023-05-01T11:05:10.786Z,18.72
2023-05-01T11:06:10.799Z,18.67
2023-05-01T11:07:10.906Z,18.59
2023-05-01T11:08:10.692Z,18.62
2023-05-01T11:09:10.677Z,18.72
2023-05-01T11:10:10.673Z,18.90
2023-05-01T11:11:10.660Z,19.10
2023-05-01T11:12:10.638Z,19.17
2023-05-01T11:13:10.613Z,19.28
2023-05-01T11:14:10.605Z,19.42
2023-05-01T11:15:10.609Z,19.43
2023-05-01T11:16:10.691Z,19.55
2023-05-01T11:17:10.561Z,19.69
2023-05-01T11:18:10.570Z,19.84
2023-05-01T11:19:10.531Z,19.91
2023-05-01T11:20:10.541Z,19.94
2023-05-01T11:21:10.534Z,20.06
2023-05-01T11:22:10.492Z,20.15
2023-05-01T11:23:10.477Z,20.12
2023-05-01T11:24:10.473Z,20.00
2023-05-01T11:25:10.458Z,19.93
2023-05-01T11:26:10.493Z,19.90
2023-05-01T11:27:10.420Z,19.88
2023-05-01T11:28:10.417Z,19.88
2023-05-01T11:29:10.395Z,19.91
2023-05-01T11:30:10.389Z,19.97
2023-05-01T11:31:10.387Z,19.88
2023-05-01T11:32:10.511Z,19.95
2023-05-01T11:33:11.133Z,20.00
2023-05-01T11:34:10.341Z,19.94
2023-05-01T11:35:10.336Z,19.76
2023-05-01T11:36:10.480Z,19.58
2023-05-01T11:37:10.309Z,19.65
2023-05-01T11:38:10.305Z,19.78
2023-05-01T11:39:10.284Z,19.95
2023-05-01T11:40:10.297Z,20.06
2023-05-01T11:41:10.250Z,20.18
2023-05-01T11:42:10.364Z,20.30
2023-05-01T11:43:10.216Z,20.30
2023-05-01T11:44:10.236Z,20.34
2023-05-01T11:45:10.197Z,20.41
2023-05-01T11:46:10.210Z,20.56
2023-05-01T11:47:10.177Z,20.66
2023-05-01T11:48:10.200Z,20.81
2023-05-01T11:49:10.147Z,20.87
2023-05-01T11:50:10.302Z,20.89
2023-05-01T11:51:10.119Z,20.95
2023-05-01T11:52:10.109Z,21.05
2023-05-01T11:53:10.073Z,21.11
2023-05-01T11:54:10.094Z,21.26
2023-05-01T11:55:10.061Z,21.48
2023-05-01T11:56:19.541Z,21.34
2023-05-01T11:57:11.039Z,21.53
2023-05-01T11:58:10.054Z,21.57
2023-05-01T11:59:10.028Z,21.35
2023-05-01T12:00:10.169Z,21.01
2023-05-01T12:01:09.999Z,20.90
2023-05-01T12:02:09.999Z,20.68
2023-05-01T12:03:10.095Z,20.59
2023-05-01T12:04:10.048Z,20.51
2023-05-01T12:05:09.988Z,20.58
2023-05-01T12:06:09.966Z,20.64
2023-05-01T12:07:09.956Z,20.69
2023-05-01T12:08:10.039Z,20.64
2023-05-01T12:09:09.906Z,20.76
2023-05-01T12:10:09.947Z,20.79
2023-05-01T12:11:09.913Z,20.86
2023-05-01T12:12:09.841Z,20.86
2023-05-01T12:13:09.845Z,21.01
2023-05-01T12:14:09.844Z,20.98
2023-05-01T12:15:09.806Z,20.90
2023-05-01T12:16:09.817Z,20.90
2023-05-01T12:17:09.887Z,21.05
2023-05-01T12:18:09.877Z,21.13
2023-05-01T12:19:09.741Z,21.16
2023-05-01T12:20:09.757Z,21.17
2023-05-01T12:21:09.729Z,21.26
2023-05-01T12:22:09.766Z,21.30
2023-05-01T12:23:09.731Z,21.34
2023-05-01T12:24:09.713Z,21.39
2023-05-01T12:25:09.687Z,21.39
2023-05-01T12:26:09.665Z,21.29
2023-05-01T12:27:09.679Z,21.29
2023-05-01T12:28:09.657Z,21.27
2023-05-01T12:29:09.650Z,21.24
2023-05-01T12:30:09.635Z,21.21
2023-05-01T12:31:09.623Z,21.21
2023-05-01T12:32:09.642Z,21.20
2023-05-01T12:33:09.623Z,20.98
2023-05-01T12:34:09.563Z,20.65
2023-05-01T12:35:09.543Z,20.71
2023-05-01T12:36:09.533Z,20.54
2023-05-01T12:37:09.537Z,20.41
2023-05-01T12:38:09.508Z,20.54
2023-05-01T12:39:09.565Z,20.71
2023-05-01T12:40:09.506Z,20.93
2023-05-01T12:41:09.564Z,21.06
2023-05-01T12:42:09.440Z,21.16
2023-05-01T12:43:09.499Z,21.17
2023-05-01T12:44:09.441Z,21.24
2023-05-01T12:45:09.413Z,21.29
2023-05-01T12:46:09.427Z,21.36
2023-05-01T12:47:09.396Z,21.51
2023-05-01T12:48:09.420Z,21.67
2023-05-01T12:49:09.372Z,21.72
2023-05-01T12:50:09.390Z,21.83
2023-05-01T12:51:09.353Z,21.88
2023-05-01T12:52:09.546Z,21.85
2023-05-01T12:53:09.324Z,21.90
2023-05-01T12:54:09.316Z,21.95
2023-05-01T12:55:09.303Z,22.02
2023-05-01T12:56:09.265Z,22.17
2023-05-01T12:57:09.264Z,22.34
2023-05-01T12:58:09.231Z,22.54
2023-05-01T12:59:09.232Z,22.64
2023-05-01T13:00:09.211Z,22.60
2023-05-01T13:01:09.269Z,22.64
2023-05-01T13:02:09.203Z,22.29
2023-05-01T13:03:09.256Z,22.23
2023-05-01T13:04:09.287Z,22.23
2023-05-01T13:05:09.176Z,22.29
2023-05-01T13:06:09.197Z,22.47